Time;durP1;ratioP1;P1;durP2;ratioP2;P2;SDS_P1;SDS_P2;PMS_P1;PMS_P2;Temp;Humidity;BMP_temperature;BMP_pressure;BME280_temperature;BME280_humidity;BME280_pressure;Samples;Min_cycle;Max_cycle;Signal;HPM_P1;HPM_P2
2024/04/09 00:01:25;;;;;;;13.40;4.37;;;18.80;57.50;;;;;;6288766;22;20197;-84
2024/04/09 00:03:51;;;;;;;9.13;4.17;;;18.80;57.20;;;;;;6261536;22;20175;-82
2024/04/09 00:06:19;;;;;;;14.03;4.37;;;18.80;57.20;;;;;;6287686;22;20165;-81
2024/04/09 00:08:45;;;;;;;13.67;3.97;;;18.80;57.20;;;;;;6287920;22;20199;-81
2024/04/09 00:11:21;;;;;;;7.57;3.40;;;18.80;57.30;;;;;;6262087;22;20402;-82
2024/04/09 00:13:52;;;;;;;11.57;3.03;;;18.80;57.30;;;;;;6286910;22;20409;-80
2024/04/09 00:16:22;;;;;;;6.50;2.63;;;18.80;57.30;;;;;;6260760;22;20846;-80
2024/04/09 00:18:53;;;;;;;7.17;2.80;;;18.70;57.30;;;;;;6287958;22;20367;-80
2024/04/09 00:21:23;;;;;;;6.40;3.47;;;18.70;57.30;;;;;;6289181;22;20796;-83
2024/04/09 00:23:49;;;;;;;5.97;2.67;;;18.70;57.30;;;;;;6286787;22;20370;-81
2024/04/09 00:26:16;;;;;;;11.03;3.80;;;18.70;57.40;;;;;;6288610;22;20411;-80
2024/04/09 00:28:42;;;;;;;14.70;4.80;;;18.70;57.40;;;;;;6266714;22;20394;-80
2024/04/09 00:31:08;;;;;;;11.80;4.20;;;18.70;57.40;;;;;;6292530;22;20352;-82
2024/04/09 00:33:33;;;;;;;12.47;4.33;;;18.70;57.40;;;;;;6268031;22;20362;-80
2024/04/09 00:35:59;;;;;;;11.03;3.50;;;18.70;57.50;;;;;;6235334;22;20234;-80
2024/04/09 00:38:27;;;;;;;9.37;3.80;;;18.80;56.20;;;;;;6288861;22;20175;-81
2024/04/09 00:40:53;;;;;;;18.60;4.67;;;18.90;56.20;;;;;;6262978;22;20143;-80
2024/04/09 00:43:19;;;;;;;13.50;4.30;;;18.90;55.90;;;;;;6237822;22;20368;-81
2024/04/09 00:45:50;;;;;;;21.97;4.13;;;19.00;56.70;;;;;;6261031;22;20464;-79
2024/04/09 00:48:16;;;;;;;21.00;3.20;;;19.10;57.80;;;;;;6263365;22;20442;-82
2024/04/09 00:50:45;;;;;;;15.90;3.97;;;19.10;58.20;;;;;;6288563;22;20348;-81
2024/04/09 00:53:11;;;;;;;13.90;5.50;;;19.10;59.30;;;;;;6266011;22;20436;-80
2024/04/09 00:55:42;;;;;;;14.37;4.20;;;19.10;60.20;;;;;;6259649;22;20399;-79
2024/04/09 00:58:13;;;;;;;10.50;3.07;;;19.00;60.90;;;;;;6289687;22;20438;-80
2024/04/09 01:00:41;;;;;;;13.43;3.13;;;18.80;62.20;;;;;;6261394;22;20364;-81
2024/04/09 01:03:11;;;;;;;17.37;3.30;;;18.70;65.50;;;;;;6292658;22;20482;-80
2024/04/09 01:05:37;;;;;;;14.43;4.43;;;18.50;66.40;;;;;;6239795;22;20379;-79
2024/04/09 01:08:04;;;;;;;15.07;4.20;;;18.50;68.50;;;;;;6260120;22;20417;-81
2024/04/09 01:10:30;;;;;;;13.93;3.90;;;18.40;69.10;;;;;;6259413;22;20423;-80
2024/04/09 01:12:56;;;;;;;12.47;3.97;;;18.30;70.10;;;;;;6286017;22;20360;-82
2024/04/09 01:15:22;;;;;;;12.37;3.50;;;18.20;71.10;;;;;;6259139;22;20372;-78
2024/04/09 01:17:48;;;;;;;11.07;3.67;;;18.10;71.70;;;;;;6287012;22;20835;-80
2024/04/09 01:20:14;;;;;;;14.07;3.53;;;17.90;72.90;;;;;;6287056;22;20147;-80
2024/04/09 01:22:40;;;;;;;13.63;3.47;;;17.90;73.60;;;;;;6260560;22;20367;-79
2024/04/09 01:25:06;;;;;;;12.90;4.10;;;17.80;74.20;;;;;;6284903;22;20220;-81
2024/04/09 01:27:36;;;;;;;6.97;2.60;;;17.80;74.90;;;;;;6287855;22;20409;-80
2024/04/09 01:30:07;;;;;;;10.27;3.10;;;17.70;75.10;;;;;;6286781;22;20553;-79
2024/04/09 01:32:32;;;;;;;10.67;3.00;;;17.70;76.00;;;;;;6286529;22;20446;-81
2024/04/09 01:35:00;;;;;;;9.50;3.67;;;17.60;76.60;;;;;;6285888;22;20393;-81
2024/04/09 01:37:27;;;;;;;14.60;3.13;;;17.50;77.50;;;;;;6259365;22;20172;-81
2024/04/09 01:39:53;;;;;;;7.33;2.37;;;17.50;78.10;;;;;;6286318;22;20779;-80
2024/04/09 01:42:18;;;;;;;11.13;3.17;;;17.40;78.40;;;;;;6286012;22;20373;-80
2024/04/09 01:44:44;;;;;;;15.33;3.93;;;17.30;78.90;;;;;;6258989;22;20168;-79
2024/04/09 01:47:10;;;;;;;11.67;3.13;;;17.30;79.40;;;;;;6258957;22;20185;-80
2024/04/09 01:49:36;;;;;;;9.03;3.00;;;17.20;80.10;;;;;;6285685;22;20185;-80
2024/04/09 01:52:02;;;;;;;9.40;2.37;;;17.20;80.90;;;;;;6259680;22;20403;-82
2024/04/09 01:54:28;;;;;;;10.77;2.93;;;17.10;81.10;;;;;;6286704;22;20133;-81
2024/04/09 01:56:53;;;;;;;9.77;2.90;;;17.10;81.70;;;;;;6259650;22;20380;-81
2024/04/09 01:59:19;;;;;;;10.83;2.50;;;17.00;81.60;;;;;;6287784;22;20146;-81
2024/04/09 02:01:45;;;;;;;10.40;3.70;;;17.00;81.20;;;;;;6260420;22;20132;-80
2024/04/09 02:04:11;;;;;;;9.13;2.20;;;17.00;81.40;;;;;;6260139;22;20173;-80
2024/04/09 02:06:37;;;;;;;8.60;3.10;;;17.00;81.50;;;;;;6291785;22;20181;-79
2024/04/09 02:09:03;;;;;;;6.43;2.30;;;17.00;81.70;;;;;;6265352;22;20404;-80
2024/04/09 02:11:31;;;;;;;5.73;1.93;;;16.90;81.90;;;;;;6290803;22;20486;-81
2024/04/09 02:13:57;;;;;;;7.97;2.53;;;16.90;82.20;;;;;;6291538;22;20392;-81
2024/04/09 02:16:23;;;;;;;6.20;2.07;;;16.90;82.60;;;;;;6293898;22;20381;-80
2024/04/09 02:18:49;;;;;;;11.13;2.27;;;16.90;82.90;;;;;;6291215;22;20139;-81
2024/04/09 02:21:20;;;;;;;8.50;2.90;;;16.90;83.30;;;;;;6288880;22;20149;-80
2024/04/09 02:23:46;;;;;;;4.63;1.90;;;16.90;83.70;;;;;;6286707;22;20366;-81
2024/04/09 02:26:12;;;;;;;11.10;2.47;;;16.90;84.00;;;;;;6286658;22;20442;-80
2024/04/09 02:28:37;;;;;;;4.97;1.93;;;16.90;84.60;;;;;;6259373;22;20681;-81
2024/04/09 02:31:07;;;;;;;9.43;2.17;;;16.80;84.80;;;;;;6258866;22;20152;-81
2024/04/09 02:33:33;;;;;;;4.70;2.20;;;16.80;85.10;;;;;;6286216;22;20135;-81
2024/04/09 02:36:02;;;;;;;5.97;2.10;;;16.70;85.50;;;;;;6285690;22;20361;-80
2024/04/09 02:38:30;;;;;;;5.37;2.73;;;16.70;86.20;;;;;;6285389;22;20367;-81
2024/04/09 02:40:56;;;;;;;6.30;2.13;;;16.70;86.90;;;;;;6285983;22;20366;-82
2024/04/09 02:43:23;;;;;;;3.47;1.77;;;16.60;87.60;;;;;;6259491;22;20378;-80
2024/04/09 02:45:49;;;;;;;4.93;2.33;;;16.60;88.10;;;;;;6287166;22;20139;-81
2024/04/09 02:48:15;;;;;;;4.93;1.77;;;16.50;88.50;;;;;;6260096;22;20783;-81
2024/04/09 02:50:51;;;;;;;2.70;1.40;;;16.40;89.00;;;;;;6286630;22;20383;-80
2024/04/09 02:53:16;;;;;;;6.30;1.70;;;16.40;89.90;;;;;;6260066;22;20378;-80
2024/04/09 02:55:43;;;;;;;5.07;2.23;;;16.30;90.40;;;;;;6286956;22;20439;-80
2024/04/09 02:58:09;;;;;;;6.37;1.80;;;16.20;90.90;;;;;;6258872;22;20217;-80
2024/04/09 03:00:38;;;;;;;4.40;2.03;;;16.20;91.20;;;;;;6233595;22;20371;-79
2024/04/09 03:03:04;;;;;;;6.70;1.67;;;16.10;91.50;;;;;;6285308;22;20362;-81
2024/04/09 03:05:32;;;;;;;3.23;1.57;;;16.00;91.80;;;;;;6285125;22;20699;-80
2024/04/09 03:15:10;;;;;;;4.60;1.77;;;16.00;93.30;;;;;;6291109;22;20494;-79
2024/04/09 03:17:36;;;;;;;4.40;1.80;;;16.00;94.00;;;;;;6265176;22;20841;-81
2024/04/09 03:20:04;;;;;;;4.40;1.73;;;16.00;94.60;;;;;;6263825;22;20136;-80
2024/04/09 03:22:29;;;;;;;8.20;2.37;;;16.10;95.10;;;;;;6259233;22;20210;-80
2024/04/09 03:24:55;;;;;;;6.97;2.27;;;16.20;95.40;;;;;;6258299;22;20357;-80
2024/04/09 03:27:20;;;;;;;6.20;2.27;;;16.20;95.70;;;;;;6258373;22;20264;-79
2024/04/09 03:29:49;;;;;;;7.93;3.00;;;16.20;96.10;;;;;;6287221;22;20478;-82
2024/04/09 03:32:15;;;;;;;3.10;1.90;;;16.20;96.40;;;;;;6284439;22;20579;-80
2024/04/09 03:34:40;;;;;;;8.53;2.80;;;16.30;96.70;;;;;;6258314;22;20388;-81
2024/04/09 03:37:06;;;;;;;4.07;2.10;;;16.30;97.00;;;;;;6259629;22;20231;-80
2024/04/09 03:39:34;;;;;;;5.00;3.00;;;16.30;97.20;;;;;;6233762;22;20154;-80
2024/04/09 03:42:00;;;;;;;4.60;2.50;;;16.30;97.50;;;;;;6259689;22;20431;-80
2024/04/09 03:44:25;;;;;;;9.40;2.30;;;16.20;98.20;;;;;;6258840;22;20363;-81
2024/04/09 03:46:51;;;;;;;6.33;3.00;;;16.10;99.40;;;;;;6286426;22;20497;-81
2024/04/09 03:49:16;;;;;;;5.30;2.03;;;15.90;99.90;;;;;;6285604;22;20434;-81
2024/04/09 03:51:42;;;;;;;7.53;2.40;;;15.80;99.90;;;;;;6233539;22;20181;-81
2024/04/09 03:54:09;;;;;;;3.30;1.70;;;15.60;99.90;;;;;;6288038;22;20371;-80
2024/04/09 03:56:34;;;;;;;9.63;2.60;;;15.60;99.90;;;;;;6286382;22;20241;-80
2024/04/09 03:59:00;;;;;;;6.00;2.30;;;15.60;99.90;;;;;;6286854;22;20362;-79
2024/04/09 04:01:26;;;;;;;8.17;2.43;;;15.50;99.90;;;;;;6266668;22;20134;-80
2024/04/09 04:03:52;;;;;;;7.43;2.80;;;15.50;99.90;;;;;;6266454;22;20141;-81
2024/04/09 04:06:17;;;;;;;10.70;3.20;;;15.50;99.90;;;;;;6293990;22;20383;-79
2024/04/09 04:08:45;;;;;;;6.50;2.30;;;15.50;99.90;;;;;;6293946;22;20156;-79
2024/04/09 04:11:13;;;;;;;6.63;2.20;;;15.40;99.90;;;;;;6265789;22;20141;-81
2024/04/09 04:13:39;;;;;;;5.90;2.13;;;15.40;99.90;;;;;;6269911;22;20360;-81
2024/04/09 04:16:07;;;;;;;8.40;2.80;;;15.40;99.90;;;;;;6271300;22;20668;-80
2024/04/09 04:18:40;;;;;;;9.50;2.50;;;15.30;99.90;;;;;;6272750;22;20367;-81
2024/04/09 04:21:08;;;;;;;6.20;1.77;;;15.20;99.90;;;;;;6300199;22;20367;-79
2024/04/09 04:23:34;;;;;;;2.90;1.53;;;15.20;99.90;;;;;;6273728;22;20359;-80
2024/04/09 04:26:03;;;;;;;7.37;1.67;;;15.00;99.90;;;;;;6294928;22;20371;-80
2024/04/09 04:28:35;;;;;;;4.20;2.07;;;15.00;99.90;;;;;;6297554;22;20194;-79
2024/04/09 04:31:07;;;;;;;5.47;2.20;;;14.90;99.90;;;;;;6270320;22;20442;-80
2024/04/09 04:33:33;;;;;;;4.20;2.20;;;14.80;99.90;;;;;;6270687;22;20375;-81
2024/04/09 04:35:59;;;;;;;4.37;1.90;;;14.60;99.90;;;;;;6269302;22;20441;-80
2024/04/09 04:38:25;;;;;;;3.10;1.60;;;14.60;99.90;;;;;;6271194;22;20363;-81
2024/04/09 04:40:51;;;;;;;5.17;2.10;;;14.60;99.90;;;;;;6296680;22;20137;-80
2024/04/09 04:43:17;;;;;;;2.90;1.90;;;14.60;99.90;;;;;;6301415;22;20459;-80
2024/04/09 04:45:44;;;;;;;5.07;1.77;;;14.60;99.90;;;;;;6303103;22;20415;-83
2024/04/09 04:48:11;;;;;;;7.20;1.90;;;14.70;99.90;;;;;;6274070;22;20431;-82
2024/04/09 04:50:37;;;;;;;4.67;2.17;;;14.80;99.90;;;;;;6271992;22;20355;-81
2024/04/09 04:53:04;;;;;;;5.00;1.70;;;14.80;99.90;;;;;;6298291;22;20367;-82
2024/04/09 04:55:32;;;;;;;8.77;2.53;;;14.80;99.90;;;;;;6272016;22;20413;-82
2024/04/09 04:58:02;;;;;;;5.40;2.33;;;14.90;99.90;;;;;;6273126;22;20391;-80
2024/04/09 05:00:29;;;;;;;6.80;1.90;;;14.90;99.90;;;;;;6250800;22;20371;-81
2024/04/09 05:02:56;;;;;;;4.37;2.40;;;15.00;99.90;;;;;;6250885;22;20382;-82
2024/04/09 05:05:22;;;;;;;4.90;2.20;;;15.00;99.90;;;;;;6301524;22;20362;-80
2024/04/09 05:07:49;;;;;;;3.10;1.87;;;15.00;99.90;;;;;;6300056;22;20490;-81
2024/04/09 05:10:19;;;;;;;1.97;1.43;;;15.10;99.90;;;;;;6251296;22;20383;-81
2024/04/09 05:13:11;;;;;;;3.60;1.70;;;15.10;99.90;;;;;;6281469;22;20376;-81
2024/04/09 05:16:05;;;;;;;1.67;1.20;;;15.20;99.90;;;;;;6226930;22;20405;-81
2024/04/09 05:18:36;;;;;;;6.97;1.60;;;15.20;99.90;;;;;;6252747;22;20374;-84
2024/04/09 05:21:04;;;;;;;2.97;1.57;;;15.20;99.90;;;;;;6278414;22;20369;-83
2024/04/09 05:23:54;;;;;;;6.97;1.77;;;15.20;99.90;;;;;;6252855;22;20414;-84
2024/04/09 05:26:21;;;;;;;6.57;2.93;;;15.20;99.90;;;;;;6300787;22;20378;-82
2024/04/09 05:28:47;;;;;;;4.57;2.03;;;15.10;99.90;;;;;;6250793;22;20431;-82
2024/04/09 05:31:14;;;;;;;4.00;2.23;;;15.10;99.90;;;;;;6251036;22;20401;-85
2024/04/09 05:33:55;;;;;;;4.30;2.20;;;15.10;99.90;;;;;;6250589;22;20398;-84
2024/04/09 05:36:32;;;;;;;2.77;1.53;;;15.10;99.90;;;;;;6252532;22;20413;-83
2024/04/09 05:38:59;;;;;;;4.77;2.30;;;15.20;99.90;;;;;;6253656;22;20367;-83
2024/04/09 05:41:27;;;;;;;3.57;1.53;;;15.20;99.90;;;;;;6275486;22;20466;-85
2024/04/09 05:44:14;;;;;;;3.13;1.30;;;15.20;99.90;;;;;;6251993;22;20160;-83
2024/04/09 05:49:35;;;;;;;5.97;1.63;;;15.30;99.90;;;;;;6209886;23;20465;-86
2024/04/09 05:52:19;;;;;;;3.53;1.47;;;15.30;99.90;;;;;;6163107;23;20379;-83
2024/04/09 05:55:05;;;;;;;1.67;1.03;;;15.30;99.90;;;;;;6189589;23;20916;-86
2024/04/09 06:04:09;;;;;;;4.10;1.43;;;15.20;99.90;;;;;;6178533;23;20473;-84
2024/04/09 06:06:44;;;;;;;3.43;0.80;;;15.10;99.90;;;;;;6147024;22;20502;-85
2024/04/09 06:09:34;;;;;;;2.27;1.07;;;14.90;99.90;;;;;;6210050;23;20473;-84
2024/04/09 06:12:00;;;;;;;1.73;1.10;;;14.70;99.90;;;;;;6187821;23;20424;-82
2024/04/09 06:14:53;;;;;;;2.00;1.00;;;14.60;99.90;;;;;;6234029;23;20618;-84
2024/04/09 06:17:20;;;;;;;1.93;0.80;;;14.50;99.90;;;;;;6204047;23;20416;-84
2024/04/09 06:19:50;;;;;;;1.47;0.93;;;14.50;99.90;;;;;;6214467;23;20367;-84
2024/04/09 06:22:20;;;;;;;1.67;1.10;;;14.60;99.90;;;;;;6216101;23;20349;-83
2024/04/09 06:25:10;;;;;;;2.80;1.20;;;14.70;99.90;;;;;;6241377;23;20378;-84
2024/04/09 06:27:56;;;;;;;1.60;1.50;;;14.70;99.90;;;;;;6189751;23;20440;-83
2024/04/09 06:30:43;;;;;;;1.73;1.10;;;14.70;99.90;;;;;;6219902;23;20413;-84
2024/04/09 06:33:09;;;;;;;2.63;1.20;;;14.70;99.90;;;;;;6216900;23;20385;-83
2024/04/09 06:36:06;;;;;;;3.20;1.63;;;14.60;99.90;;;;;;6215877;23;20381;-82
2024/04/09 06:38:41;;;;;;;2.33;1.23;;;14.60;99.90;;;;;;6240264;23;20377;-82
2024/04/09 06:55:20;;;;;;;3.20;0.90;;;14.30;99.90;;;;;;6219570;22;20432;-79
2024/04/09 06:57:49;;;;;;;1.43;0.90;;;14.00;99.90;;;;;;6206217;23;20390;-76
2024/04/09 07:00:17;;;;;;;1.50;0.80;;;13.80;99.90;;;;;;6202225;22;20404;-79
2024/04/09 07:02:44;;;;;;;1.97;1.13;;;13.50;99.90;;;;;;6183160;23;20362;-78
2024/04/09 07:05:13;;;;;;;1.83;1.00;;;13.30;99.90;;;;;;6186554;22;20436;-81
2024/04/09 07:07:51;;;;;;;1.43;1.00;;;13.10;99.90;;;;;;6138503;23;20453;-80
2024/04/09 07:10:17;;;;;;;2.70;0.80;;;12.90;99.90;;;;;;6209437;23;20373;-77
2024/04/09 07:12:42;;;;;;;2.20;1.20;;;12.70;99.90;;;;;;6181610;23;20407;-80
2024/04/09 07:15:11;;;;;;;4.23;1.00;;;12.50;99.90;;;;;;6179995;23;20157;-78
2024/04/09 07:17:37;;;;;;;2.33;1.17;;;12.30;99.90;;;;;;6209437;23;20457;-79
2024/04/09 07:20:03;;;;;;;2.13;1.00;;;12.10;99.90;;;;;;6183924;23;20840;-79
2024/04/09 07:22:32;;;;;;;1.80;1.13;;;12.00;99.90;;;;;;6185974;23;20377;-82
2024/04/09 07:24:58;;;;;;;3.03;1.00;;;12.00;99.90;;;;;;6160968;23;20385;-81
2024/04/09 07:27:27;;;;;;;2.13;0.80;;;12.00;99.90;;;;;;6184310;23;20414;-80
2024/04/09 07:29:54;;;;;;;6.40;1.63;;;11.90;99.90;;;;;;6210352;23;20346;-78
2024/04/09 07:32:20;;;;;;;2.83;1.03;;;11.90;99.90;;;;;;6210125;23;20334;-78
2024/04/09 07:34:46;;;;;;;3.20;1.10;;;11.90;99.90;;;;;;6184492;23;20261;-79
2024/04/09 07:37:13;;;;;;;1.80;0.90;;;12.00;99.90;;;;;;6211383;22;20477;-82
2024/04/09 07:39:44;;;;;;;2.67;1.10;;;12.00;99.90;;;;;;6185338;22;20380;-82
2024/04/09 07:42:12;;;;;;;1.93;0.97;;;12.10;99.90;;;;;;6200023;23;20450;-81
2024/04/09 07:54:41;;;;;;;2.77;1.27;;;12.70;99.90;;;;;;6198639;22;20490;-83
2024/04/09 08:03:39;;;;;;;1.53;0.97;;;13.40;99.90;;;;;;6154772;23;20441;-82
2024/04/09 08:06:10;;;;;;;4.53;1.80;;;13.60;99.90;;;;;;6102836;23;20417;-84
2024/04/09 08:08:58;;;;;;;3.17;1.17;;;13.80;99.90;;;;;;6050257;23;20432;-80
2024/04/09 08:11:49;;;;;;;2.93;1.13;;;14.00;99.90;;;;;;6124902;23;20381;-83
2024/04/09 08:19:59;;;;;;;3.23;1.67;;;14.20;99.90;;;;;;6174178;23;20536;-82
2024/04/09 08:22:40;;;;;;;5.27;2.00;;;14.20;99.90;;;;;;6145470;23;20380;-82
2024/04/09 08:25:49;;;;;;;4.47;1.83;;;14.20;99.90;;;;;;6152450;23;20441;-83
2024/04/09 08:28:27;;;;;;;2.73;1.33;;;14.30;99.90;;;;;;6197941;23;20439;-81
2024/04/09 08:41:08;;;;;;;2.07;1.20;;;14.70;99.90;;;;;;6194291;23;20440;-80
2024/04/09 08:43:40;;;;;;;4.57;1.60;;;14.60;99.90;;;;;;6162255;23;20453;-79
2024/04/09 08:46:07;;;;;;;2.23;1.30;;;14.60;99.90;;;;;;6125358;23;20455;-80
2024/04/09 08:48:35;;;;;;;3.17;1.40;;;14.60;99.90;;;;;;6119942;23;20419;-78
2024/04/09 08:51:04;;;;;;;2.63;1.63;;;14.60;99.90;;;;;;6122991;23;20356;-83
2024/04/09 08:53:35;;;;;;;2.57;1.60;;;14.60;99.90;;;;;;6104132;23;20426;-79
2024/04/09 08:56:02;;;;;;;1.23;0.93;;;14.60;99.90;;;;;;6126299;23;20383;-78
2024/04/09 08:58:30;;;;;;;2.20;1.30;;;14.70;99.90;;;;;;6102820;23;20379;-80
2024/04/09 09:00:58;;;;;;;3.40;1.00;;;14.80;98.80;;;;;;6128266;23;20386;-78
2024/04/09 09:03:33;;;;;;;2.30;1.20;;;14.80;97.20;;;;;;6149303;23;20630;-79
2024/04/09 09:09:01;;;;;;;3.70;1.60;;;14.80;95.80;;;;;;6207894;23;20515;-78
2024/04/09 09:11:36;;;;;;;1.83;1.00;;;14.80;96.00;;;;;;6161534;23;20421;-78
2024/04/09 09:14:05;;;;;;;2.57;1.10;;;14.70;95.30;;;;;;6160094;23;22653;-79
2024/04/09 09:16:31;;;;;;;4.90;1.30;;;14.60;95.10;;;;;;6158161;23;20491;-77
2024/04/09 09:19:06;;;;;;;2.70;1.33;;;14.50;95.20;;;;;;6184172;23;20365;-78
2024/04/09 09:21:51;;;;;;;4.80;1.50;;;14.40;95.50;;;;;;6212136;23;20173;-83
2024/04/09 09:29:57;;;;;;;2.73;1.20;;;14.00;95.70;;;;;;6242090;22;20384;-78
2024/04/09 09:32:29;;;;;;;5.10;1.27;;;14.00;96.10;;;;;;6168755;23;20462;-82
2024/04/09 09:35:00;;;;;;;3.13;1.10;;;14.10;96.90;;;;;;6164149;23;20385;-79
2024/04/09 09:37:28;;;;;;;3.63;1.47;;;14.20;95.90;;;;;;6113999;23;20406;-80
2024/04/09 09:40:18;;;;;;;2.33;1.37;;;14.30;95.50;;;;;;6179667;23;20429;-82
2024/04/09 09:43:24;;;;;;;6.80;1.53;;;14.50;95.30;;;;;;6182798;23;20387;-81
2024/04/09 09:46:14;;;;;;;3.93;1.37;;;14.90;94.80;;;;;;6180551;23;20411;-80
2024/04/09 09:48:43;;;;;;;3.30;1.30;;;15.50;93.60;;;;;;6179785;23;20398;-78
2024/04/09 09:51:12;;;;;;;2.90;1.30;;;15.90;92.10;;;;;;6157423;23;20385;-79
2024/04/09 09:53:38;;;;;;;5.57;2.20;;;16.30;90.30;;;;;;6133174;23;20391;-79
2024/04/09 09:56:11;;;;;;;3.20;1.97;;;16.50;87.50;;;;;;6132209;23;20458;-81
2024/04/09 09:58:42;;;;;;;3.80;1.40;;;16.70;85.00;;;;;;6156014;23;20396;-79
2024/04/09 10:01:12;;;;;;;3.60;2.07;;;17.00;81.60;;;;;;6182080;23;20403;-80
2024/04/09 10:04:06;;;;;;;5.50;1.57;;;17.20;79.00;;;;;;6133681;23;20416;-80
2024/04/09 10:07:23;;;;;;;5.40;1.90;;;17.20;74.30;;;;;;6181623;23;20397;-82
2024/04/09 10:09:53;;;;;;;4.50;1.77;;;17.20;73.50;;;;;;6153651;23;20400;-79
2024/04/09 10:12:51;;;;;;;6.10;1.40;;;17.20;67.80;;;;;;6151486;23;20373;-81
2024/04/09 10:15:30;;;;;;;3.93;1.30;;;16.90;62.30;;;;;;6156047;23;20418;-80
2024/04/09 10:18:09;;;;;;;8.83;2.50;;;16.80;61.40;;;;;;6133352;23;20393;-79
2024/04/09 10:20:36;;;;;;;3.60;1.27;;;16.80;59.50;;;;;;6134051;23;20378;-80
2024/04/09 10:23:27;;;;;;;3.67;1.43;;;16.90;58.40;;;;;;6158437;23;20429;-82
2024/04/09 10:26:00;;;;;;;2.97;1.10;;;17.00;57.90;;;;;;6156018;23;20364;-79
2024/04/09 10:29:00;;;;;;;2.30;1.20;;;16.90;58.40;;;;;;6156694;23;20411;-77
2024/04/09 10:31:30;;;;;;;4.23;1.80;;;16.60;57.20;;;;;;6156814;23;20402;-81
2024/04/09 10:34:05;;;;;;;2.73;1.63;;;16.50;56.60;;;;;;6180984;23;20467;-80
2024/04/09 10:36:35;;;;;;;3.83;1.40;;;16.20;57.00;;;;;;6134215;23;20414;-79
2024/04/09 10:39:24;;;;;;;2.17;1.20;;;16.10;58.00;;;;;;6080704;23;20443;-80
2024/04/09 10:41:57;;;;;;;4.80;1.43;;;16.00;57.60;;;;;;6135822;23;20371;-79
2024/04/09 10:44:28;;;;;;;4.60;1.50;;;15.90;58.50;;;;;;6158365;23;20458;-81
2024/04/09 10:47:09;;;;;;;3.63;1.40;;;15.70;58.70;;;;;;6061517;23;20402;-81
2024/04/09 10:49:39;;;;;;;5.40;1.40;;;15.70;58.80;;;;;;6088673;23;20428;-80
2024/04/09 10:52:21;;;;;;;6.00;1.67;;;15.70;58.80;;;;;;6157640;23;20371;-78
2024/04/09 11:03:34;;;;;;;2.67;1.63;;;16.00;59.20;;;;;;6189809;22;20480;-81
2024/04/09 11:06:46;;;;;;;4.83;1.40;;;16.00;59.10;;;;;;6242605;22;20425;-80
2024/04/09 11:09:36;;;;;;;4.53;1.53;;;16.30;58.90;;;;;;6218899;23;20423;-79
2024/04/09 11:12:44;;;;;;;4.73;1.77;;;16.40;58.60;;;;;;6217747;22;20382;-82
2024/04/09 11:16:06;;;;;;;3.97;1.20;;;16.50;58.00;;;;;;6244113;22;20363;-81
2024/04/09 11:18:40;;;;;;;3.97;1.43;;;16.60;56.90;;;;;;6211235;22;20371;-82
2024/04/09 11:21:14;;;;;;;5.20;2.33;;;16.70;56.50;;;;;;6152707;23;20400;-81
2024/04/09 11:23:47;;;;;;;3.67;1.30;;;16.70;54.70;;;;;;6129265;23;20407;-83
2024/04/09 11:26:34;;;;;;;2.73;1.30;;;16.60;54.20;;;;;;6104650;23;20398;-81
2024/04/09 11:32:03;;;;;;;3.53;1.10;;;16.60;54.00;;;;;;6184778;23;20526;-82
2024/04/09 11:34:58;;;;;;;3.90;1.23;;;16.70;53.40;;;;;;6160497;23;20388;-79
2024/04/09 11:37:46;;;;;;;3.30;1.43;;;16.70;53.60;;;;;;6151600;23;20428;-81
2024/04/09 11:40:37;;;;;;;5.50;1.67;;;16.90;53.50;;;;;;6193286;23;20426;-80
2024/04/09 11:43:03;;;;;;;7.90;1.70;;;17.10;52.60;;;;;;6185686;23;20382;-80
2024/04/09 11:45:52;;;;;;;5.70;2.20;;;17.30;52.00;;;;;;6135983;23;20453;-81
2024/04/09 11:48:27;;;;;;;4.40;1.80;;;17.40;51.30;;;;;;6187535;23;20420;-79
2024/04/09 11:53:48;;;;;;;3.30;1.80;;;17.10;51.50;;;;;;6232961;22;20503;-80
2024/04/09 11:56:22;;;;;;;8.73;1.70;;;17.20;51.40;;;;;;6136182;22;20381;-82
2024/04/09 11:58:50;;;;;;;4.17;2.33;;;17.20;51.30;;;;;;6187322;22;20403;-81
2024/04/09 12:01:48;;;;;;;4.43;1.20;;;17.30;51.10;;;;;;6187427;22;20365;-80
2024/04/09 12:06:55;;;;;;;3.90;1.43;;;17.30;51.10;;;;;;6209301;22;20498;-80
2024/04/09 12:09:23;;;;;;;2.70;1.17;;;17.40;50.90;;;;;;6210397;23;20437;-79
2024/04/09 12:11:49;;;;;;;4.50;1.43;;;17.30;50.80;;;;;;6186623;23;20415;-81
2024/04/09 12:14:25;;;;;;;2.70;1.00;;;17.30;50.50;;;;;;6212423;23;20420;-80
2024/04/09 12:16:53;;;;;;;3.93;1.10;;;17.40;50.50;;;;;;6181066;23;20420;-80
2024/04/09 12:19:19;;;;;;;2.33;1.43;;;17.40;50.40;;;;;;6180317;23;20363;-79
2024/04/09 12:21:47;;;;;;;5.23;1.77;;;17.50;50.10;;;;;;6179150;23;20398;-79
2024/04/09 12:24:13;;;;;;;4.90;1.30;;;17.50;49.50;;;;;;6167714;23;20429;-82
2024/04/09 12:26:42;;;;;;;2.73;1.17;;;17.30;49.60;;;;;;6133640;23;20430;-82
2024/04/09 12:29:14;;;;;;;4.00;1.40;;;17.40;49.30;;;;;;6156615;23;20439;-81
2024/04/09 12:31:41;;;;;;;2.67;1.23;;;17.40;49.00;;;;;;6092543;23;20162;-80
2024/04/09 12:34:07;;;;;;;3.60;1.27;;;17.30;48.70;;;;;;6039049;23;20427;-80
2024/04/09 12:36:33;;;;;;;3.27;1.13;;;17.30;48.80;;;;;;6061930;23;20407;-80
2024/04/09 12:38:59;;;;;;;3.47;1.33;;;17.20;49.30;;;;;;6019701;23;20165;-79
2024/04/09 12:41:24;;;;;;;3.60;2.20;;;17.30;48.70;;;;;;6066645;23;20365;-78
2024/04/09 12:43:51;;;;;;;3.83;1.40;;;17.40;48.30;;;;;;6067437;23;20160;-80
2024/04/09 12:46:17;;;;;;;2.03;1.27;;;17.50;48.40;;;;;;6067763;23;20180;-80
2024/04/09 12:48:44;;;;;;;2.80;1.10;;;17.70;47.90;;;;;;6070605;23;20413;-79
2024/04/09 12:51:12;;;;;;;3.40;1.30;;;17.70;47.00;;;;;;6071813;23;20441;-81
2024/04/09 12:53:41;;;;;;;5.17;1.90;;;17.70;47.50;;;;;;6046294;23;20393;-79
2024/04/09 12:56:07;;;;;;;4.13;1.23;;;17.80;46.80;;;;;;6066636;23;20439;-79
2024/04/09 12:58:33;;;;;;;2.80;1.33;;;17.80;47.00;;;;;;6065948;23;20381;-77
2024/04/09 13:01:01;;;;;;;2.40;1.17;;;17.90;47.20;;;;;;6043312;23;20382;-79
2024/04/09 13:03:28;;;;;;;2.90;1.77;;;18.10;46.80;;;;;;6043797;23;20495;-78
2024/04/09 13:05:54;;;;;;;4.82;1.30;;;18.00;45.70;;;;;;6022426;23;20400;-80
2024/04/09 13:08:23;;;;;;;2.53;1.40;;;18.00;45.50;;;;;;6067239;23;20175;-80
2024/04/09 13:10:49;;;;;;;2.80;1.20;;;18.00;44.80;;;;;;6069189;23;20413;-80
2024/04/09 13:13:16;;;;;;;5.07;1.37;;;17.90;45.60;;;;;;6092557;23;20397;-80
2024/04/09 13:15:44;;;;;;;6.13;1.57;;;18.10;44.60;;;;;;6092184;23;20393;-80
2024/04/09 13:18:11;;;;;;;5.90;1.60;;;18.10;44.20;;;;;;6065533;23;20366;-79
2024/04/09 13:20:39;;;;;;;3.60;1.20;;;18.10;44.20;;;;;;6018464;23;20377;-79
2024/04/09 13:23:07;;;;;;;3.40;1.73;;;18.10;44.30;;;;;;6068169;23;20362;-79
2024/04/09 13:25:35;;;;;;;3.13;1.17;;;18.10;44.50;;;;;;6092894;23;20474;-79
2024/04/09 13:28:03;;;;;;;2.70;1.10;;;18.10;44.10;;;;;;6123248;23;20500;-80
2024/04/09 13:30:30;;;;;;;5.20;1.60;;;18.10;44.20;;;;;;6099116;23;20441;-80
2024/04/09 13:32:56;;;;;;;5.40;1.77;;;18.10;43.80;;;;;;6095193;23;20409;-76
2024/04/09 13:35:23;;;;;;;3.13;1.03;;;18.20;43.30;;;;;;6121278;23;20456;-80
2024/04/09 13:37:49;;;;;;;2.10;1.00;;;18.10;43.50;;;;;;6096400;23;20157;-81
2024/04/09 13:40:15;;;;;;;3.50;1.20;;;18.10;43.80;;;;;;6122181;23;20462;-80
2024/04/09 13:42:43;;;;;;;8.30;1.30;;;18.30;43.90;;;;;;6142811;23;20209;-79
2024/04/09 13:45:10;;;;;;;7.47;2.10;;;18.20;43.60;;;;;;6155976;23;20371;-81
2024/04/09 13:47:38;;;;;;;1.97;1.00;;;18.10;43.20;;;;;;6157560;23;20425;-81
2024/04/09 13:50:05;;;;;;;3.83;1.37;;;18.00;44.20;;;;;;6175999;23;20828;-77
2024/04/09 13:52:35;;;;;;;3.77;2.30;;;18.00;44.20;;;;;;6125857;23;20378;-77
2024/04/09 13:55:05;;;;;;;2.93;1.43;;;18.10;44.30;;;;;;6149274;23;20649;-78
2024/04/09 13:57:32;;;;;;;2.50;1.00;;;18.00;44.40;;;;;;6147470;23;20498;-81
2024/04/09 13:59:58;;;;;;;3.57;1.73;;;18.00;44.60;;;;;;6149851;23;20394;-79
2024/04/09 14:02:24;;;;;;;2.53;1.40;;;18.00;44.90;;;;;;6150117;23;20413;-80
2024/04/09 14:04:51;;;;;;;3.00;1.45;;;18.00;44.60;;;;;;6076425;23;20397;-80
2024/04/09 14:07:18;;;;;;;3.30;1.23;;;18.10;44.40;;;;;;6126142;23;20178;-80
2024/04/09 14:09:48;;;;;;;3.50;1.87;;;18.20;44.10;;;;;;6152487;23;20386;-78
2024/04/09 14:12:14;;;;;;;5.60;2.00;;;18.20;43.30;;;;;;6152802;23;20525;-79
2024/04/09 14:14:40;;;;;;;4.07;1.50;;;18.20;43.00;;;;;;6118242;23;20385;-80
2024/04/09 14:17:08;;;;;;;2.40;1.50;;;18.20;43.40;;;;;;6091867;23;20176;-79
2024/04/09 14:19:37;;;;;;;4.00;1.50;;;18.10;43.80;;;;;;6115361;23;20590;-79
2024/04/09 14:22:04;;;;;;;5.47;1.77;;;18.40;44.20;;;;;;6117962;23;20392;-79
2024/04/09 14:24:34;;;;;;;4.70;2.40;;;18.50;43.50;;;;;;6090572;23;20444;-79
2024/04/09 14:27:00;;;;;;;4.07;1.83;;;18.50;43.40;;;;;;6042778;23;20191;-79
2024/04/09 14:29:26;;;;;;;2.33;1.00;;;18.50;43.60;;;;;;6055269;23;20441;-78
2024/04/09 14:31:52;;;;;;;7.50;2.03;;;18.40;43.70;;;;;;6057742;23;20153;-78
2024/04/09 14:34:18;;;;;;;2.30;1.20;;;18.40;43.40;;;;;;6055662;23;20158;-78